Time;durP1;ratioP1;P1;durP2;ratioP2;P2;SDS_P1;SDS_P2;PMS_P1;PMS_P2;Temp;Humidity;BMP_temperature;BMP_pressure;BME280_temperature;BME280_humidity;BME280_pressure;Samples;Min_cycle;Max_cycle;Signal;HPM_P1;HPM_P2
2022/01/29 00:02:23;;;;;;;9.47;2.10;;;-0.10;96.30;;;;;;4996058;28;20206;-76
2022/01/29 00:04:49;;;;;;;8.80;2.43;;;-0.10;96.30;;;;;;4995954;28;20174;-75
2022/01/29 00:07:14;;;;;;;7.83;2.40;;;0.00;96.30;;;;;;4996051;28;20170;-75
2022/01/29 00:09:40;;;;;;;12.93;2.90;;;-0.10;96.30;;;;;;4986781;28;20257;-76
2022/01/29 00:12:06;;;;;;;13.77;2.80;;;-0.20;96.30;;;;;;4976455;28;20201;-76
2022/01/29 00:14:31;;;;;;;10.87;2.40;;;-0.10;96.30;;;;;;4976316;28;20640;-76
2022/01/29 00:16:57;;;;;;;8.90;1.83;;;-0.20;96.30;;;;;;4975163;28;20476;-76
2022/01/29 00:19:22;;;;;;;10.57;1.83;;;-0.30;96.30;;;;;;4976466;28;20189;-75
2022/01/29 00:21:48;;;;;;;23.30;4.77;;;-0.30;96.30;;;;;;4975045;28;20210;-76
2022/01/29 00:24:13;;;;;;;6.40;2.07;;;-0.20;96.30;;;;;;4974867;28;20186;-76
2022/01/29 00:26:39;;;;;;;18.07;3.87;;;-0.40;96.30;;;;;;4976157;28;20566;-75
2022/01/29 00:29:10;;;;;;;17.33;2.77;;;-0.40;96.30;;;;;;4976292;28;20650;-76
2022/01/29 00:31:36;;;;;;;12.83;2.87;;;-0.40;96.30;;;;;;4975151;28;20558;-76
2022/01/29 00:34:01;;;;;;;18.40;3.33;;;-0.30;96.30;;;;;;4974951;28;20428;-76
2022/01/29 00:36:27;;;;;;;12.33;2.33;;;-0.30;96.30;;;;;;4975952;28;20182;-75
2022/01/29 00:38:52;;;;;;;9.33;2.07;;;-0.30;96.30;;;;;;4974693;28;20174;-76
2022/01/29 00:41:18;;;;;;;13.57;3.97;;;-0.30;96.30;;;;;;4974805;28;20194;-75
2022/01/29 00:43:43;;;;;;;18.83;3.30;;;-0.30;96.30;;;;;;4974758;28;20670;-75
2022/01/29 00:46:09;;;;;;;16.43;2.23;;;-0.20;96.30;;;;;;4975809;28;20209;-75
2022/01/29 00:48:34;;;;;;;11.50;2.43;;;-0.20;96.30;;;;;;4975801;28;20828;-76
2022/01/29 00:51:02;;;;;;;13.10;3.13;;;-0.10;96.30;;;;;;4975841;28;20198;-75
2022/01/29 00:53:27;;;;;;;9.33;2.73;;;-0.10;96.30;;;;;;4974497;28;20178;-75
2022/01/29 00:55:53;;;;;;;7.67;2.17;;;-0.10;96.30;;;;;;4975557;28;20418;-75
2022/01/29 00:58:18;;;;;;;13.80;3.00;;;-0.10;96.30;;;;;;4975783;28;20179;-75
2022/01/29 05:01:51;;;;;;;6.53;5.57;;;1.20;96.30;;;;;;5300295;23;20505;-74
2022/01/29 05:04:18;;;;;;;6.70;5.40;;;1.10;96.30;;;;;;4963927;28;20441;-74
2022/01/29 05:06:43;;;;;;;13.17;5.90;;;1.20;96.30;;;;;;4956327;28;20167;-75
2022/01/29 05:09:10;;;;;;;7.20;5.20;;;1.30;96.30;;;;;;4956409;28;20413;-74
2022/01/29 05:11:35;;;;;;;9.50;5.80;;;1.30;96.30;;;;;;4944728;28;20196;-73
2022/01/29 05:14:03;;;;;;;7.90;6.00;;;1.20;96.30;;;;;;4936924;29;20449;-74
2022/01/29 05:16:55;;;;;;;10.90;6.00;;;1.20;96.30;;;;;;4940248;29;20639;-74
2022/01/29 05:27:49;;;;;;;15.33;7.13;;;1.20;96.30;;;;;;4938538;29;20422;-74
2022/01/29 05:30:15;;;;;;;11.13;7.10;;;1.20;96.30;;;;;;4936738;29;20419;-74
2022/01/29 05:32:40;;;;;;;13.63;6.33;;;1.20;96.30;;;;;;4936638;29;20227;-74
2022/01/29 05:35:06;;;;;;;16.20;8.00;;;1.20;96.30;;;;;;4940471;29;20202;-73
2022/01/29 05:37:31;;;;;;;12.03;8.80;;;1.30;96.30;;;;;;4955776;28;20179;-76
2022/01/29 05:39:57;;;;;;;12.10;7.80;;;1.30;96.30;;;;;;4954446;28;20210;-74
2022/01/29 05:42:22;;;;;;;11.97;8.07;;;1.30;96.30;;;;;;4955550;28;20283;-74
2022/01/29 05:44:48;;;;;;;12.73;8.33;;;1.20;96.30;;;;;;4954248;28;20202;-74
2022/01/29 05:47:13;;;;;;;11.87;7.93;;;1.20;96.30;;;;;;4955519;29;20171;-74
2022/01/29 05:49:39;;;;;;;13.90;8.43;;;1.20;96.30;;;;;;4955422;29;20254;-74
2022/01/29 05:52:04;;;;;;;10.93;7.43;;;1.30;96.30;;;;;;4955512;29;20695;-74
2022/01/29 05:54:30;;;;;;;14.30;6.00;;;1.30;96.30;;;;;;4954821;29;20190;-73
2022/01/29 05:56:56;;;;;;;15.37;8.60;;;1.30;96.30;;;;;;4955346;29;20190;-74
2022/01/29 05:59:22;;;;;;;12.00;7.77;;;1.40;96.30;;;;;;4955066;28;20542;-74
2022/01/29 06:01:47;;;;;;;12.13;8.53;;;1.30;96.30;;;;;;4953478;29;20466;-73
2022/01/29 06:04:13;;;;;;;17.57;7.20;;;1.40;96.30;;;;;;4954811;29;20645;-74
2022/01/29 06:06:38;;;;;;;14.57;7.87;;;1.30;96.30;;;;;;4954276;29;20186;-73
2022/01/29 06:09:04;;;;;;;11.53;8.47;;;1.30;96.30;;;;;;4952999;29;20178;-73
2022/01/29 06:11:33;;;;;;;10.43;7.07;;;1.40;96.30;;;;;;4953404;28;20207;-73
2022/01/29 06:13:59;;;;;;;10.20;7.60;;;1.40;96.30;;;;;;4954552;28;20418;-73
2022/01/29 06:16:25;;;;;;;10.70;7.80;;;1.50;96.30;;;;;;4951730;28;20443;-73
2022/01/29 06:18:50;;;;;;;11.40;7.07;;;1.50;96.30;;;;;;4952821;29;20279;-74
2022/01/29 06:21:16;;;;;;;13.20;7.83;;;1.50;96.30;;;;;;4954160;28;20202;-73
2022/01/29 06:23:43;;;;;;;11.00;6.93;;;1.50;96.30;;;;;;4954856;29;20218;-73
2022/01/29 06:26:11;;;;;;;11.77;7.20;;;1.50;96.30;;;;;;4954555;29;20206;-73
2022/01/29 06:28:38;;;;;;;8.73;7.30;;;1.50;96.30;;;;;;4954835;28;20426;-73
2022/01/29 06:31:04;;;;;;;13.20;8.70;;;1.50;96.30;;;;;;4953323;28;20492;-73
2022/01/29 06:33:30;;;;;;;13.20;7.13;;;1.50;96.30;;;;;;4954741;28;20421;-73
2022/01/29 06:35:56;;;;;;;9.43;6.80;;;1.50;96.30;;;;;;4954408;29;20418;-73
2022/01/29 06:38:22;;;;;;;8.30;6.80;;;1.50;96.30;;;;;;4953447;28;20210;-73
2022/01/29 06:40:48;;;;;;;9.90;7.03;;;1.50;96.30;;;;;;4953246;28;20203;-73
2022/01/29 06:43:13;;;;;;;8.30;5.90;;;1.50;96.30;;;;;;4954521;28;20458;-73
2022/01/29 06:45:41;;;;;;;7.80;6.47;;;1.60;96.30;;;;;;4954417;28;20179;-74
2022/01/29 06:48:07;;;;;;;9.23;6.10;;;1.60;96.30;;;;;;4954300;28;20175;-73
2022/01/29 06:50:33;;;;;;;11.93;5.50;;;1.60;96.30;;;;;;4954320;28;20493;-73
2022/01/29 06:52:59;;;;;;;10.67;6.67;;;1.60;96.30;;;;;;4954499;28;20465;-73
2022/01/29 06:55:25;;;;;;;9.40;6.83;;;1.60;96.30;;;;;;4954102;28;20422;-72
2022/01/29 06:57:51;;;;;;;7.60;6.00;;;1.60;96.30;;;;;;4954179;28;20957;-73
2022/01/29 07:00:17;;;;;;;8.10;5.90;;;1.50;96.30;;;;;;4952290;28;20183;-73
2022/01/29 07:02:43;;;;;;;8.73;5.77;;;1.40;96.30;;;;;;4953983;29;20588;-72
2022/01/29 07:05:10;;;;;;;10.33;6.30;;;1.50;96.30;;;;;;4954034;28;20175;-72
2022/01/29 07:07:36;;;;;;;10.03;5.90;;;1.50;96.30;;;;;;4952959;28;20181;-73
2022/01/29 07:10:03;;;;;;;8.30;6.17;;;1.60;96.30;;;;;;4956824;28;20486;-73
2022/01/29 07:12:28;;;;;;;7.63;5.10;;;1.50;96.30;;;;;;4954247;28;20663;-73
2022/01/29 07:14:54;;;;;;;11.97;5.00;;;1.50;96.30;;;;;;4953898;28;20425;-73
2022/01/29 07:17:22;;;;;;;6.00;4.90;;;1.50;96.30;;;;;;4953995;28;20258;-73
2022/01/29 07:19:49;;;;;;;4.67;4.13;;;1.50;96.30;;;;;;4954167;28;20218;-73
2022/01/29 07:22:15;;;;;;;12.70;5.97;;;1.40;96.30;;;;;;4952618;28;20978;-73
2022/01/29 07:24:41;;;;;;;9.63;5.30;;;1.40;96.30;;;;;;4953821;28;20418;-72
2022/01/29 07:27:06;;;;;;;7.40;5.83;;;1.40;96.30;;;;;;4953943;28;20635;-73
2022/01/29 07:29:33;;;;;;;10.00;6.37;;;1.40;96.30;;;;;;4953940;28;20702;-73
2022/01/29 07:31:59;;;;;;;7.83;5.43;;;1.40;96.30;;;;;;4953665;28;20356;-73
2022/01/29 07:34:26;;;;;;;5.10;4.53;;;1.40;96.30;;;;;;4954246;28;20485;-73
2022/01/29 07:36:53;;;;;;;5.83;4.60;;;1.40;96.30;;;;;;4954626;28;20418;-74
2022/01/29 07:39:19;;;;;;;8.50;5.20;;;1.40;96.30;;;;;;4956215;28;20426;-74
2022/01/29 07:41:46;;;;;;;6.37;4.10;;;1.40;96.30;;;;;;4954123;28;20426;-73
2022/01/29 07:44:11;;;;;;;5.63;4.57;;;1.40;96.30;;;;;;4954541;28;20415;-73
2022/01/29 07:46:37;;;;;;;6.57;4.70;;;1.40;96.30;;;;;;4953493;28;20413;-72
2022/01/29 07:49:03;;;;;;;7.50;5.70;;;1.50;96.30;;;;;;4952617;28;20178;-73
2022/01/29 07:51:28;;;;;;;6.73;4.90;;;1.50;96.30;;;;;;4952787;28;20191;-74
2022/01/29 07:53:54;;;;;;;5.30;4.10;;;1.50;96.30;;;;;;4953847;28;20655;-73
2022/01/29 07:56:22;;;;;;;2.73;2.43;;;1.50;96.30;;;;;;4953358;28;20643;-73
2022/01/29 07:58:49;;;;;;;7.57;5.53;;;1.50;96.30;;;;;;4954713;28;20182;-73
2022/01/29 08:01:14;;;;;;;7.03;4.80;;;1.60;96.30;;;;;;4956021;28;20462;-73
2022/01/29 08:03:40;;;;;;;5.10;4.33;;;1.60;96.30;;;;;;4956310;28;20488;-73
2022/01/29 08:06:06;;;;;;;6.97;4.70;;;1.60;96.30;;;;;;4957039;28;20190;-73
2022/01/29 08:08:32;;;;;;;7.53;5.23;;;1.60;96.30;;;;;;4956927;28;20414;-73
2022/01/29 08:10:57;;;;;;;6.53;5.20;;;1.50;96.30;;;;;;4956523;28;20203;-73
2022/01/29 08:13:23;;;;;;;8.23;4.60;;;1.50;96.30;;;;;;4957004;28;20286;-72
2022/01/29 08:15:48;;;;;;;7.23;4.23;;;1.60;96.30;;;;;;4957154;29;20262;-72
2022/01/29 08:18:14;;;;;;;6.27;4.07;;;1.60;96.30;;;;;;4947835;29;20222;-73
2022/01/29 08:20:39;;;;;;;4.53;3.30;;;1.60;96.30;;;;;;4950464;28;20250;-72
2022/01/29 08:23:09;;;;;;;5.10;4.00;;;1.60;96.30;;;;;;4957067;28;20741;-73
2022/01/29 08:25:35;;;;;;;5.30;4.00;;;1.60;96.30;;;;;;4955106;28;20229;-73
2022/01/29 08:28:01;;;;;;;5.20;3.80;;;1.50;96.30;;;;;;4955737;29;20414;-73
2022/01/29 08:30:27;;;;;;;5.97;4.30;;;1.50;96.30;;;;;;4955621;28;20570;-73
2022/01/29 08:32:52;;;;;;;4.93;3.80;;;1.50;96.30;;;;;;4956975;28;20182;-74
2022/01/29 08:35:18;;;;;;;3.30;2.80;;;1.50;96.30;;;;;;4955044;28;20246;-73
2022/01/29 08:37:44;;;;;;;4.77;3.77;;;1.60;96.30;;;;;;4956835;28;20179;-73
2022/01/29 08:40:11;;;;;;;3.90;3.23;;;1.60;96.30;;;;;;4956681;28;20195;-76
2022/01/29 08:42:37;;;;;;;3.03;2.33;;;1.70;96.30;;;;;;4956539;28;20458;-74
2022/01/29 08:45:05;;;;;;;6.10;3.87;;;1.70;96.30;;;;;;4956150;28;20407;-74
2022/01/29 08:47:31;;;;;;;4.00;3.37;;;1.80;96.30;;;;;;4956295;29;20418;-74
2022/01/29 08:49:56;;;;;;;4.40;3.37;;;1.80;96.30;;;;;;4956515;28;20414;-76
2022/01/29 08:52:22;;;;;;;4.87;2.80;;;1.80;96.30;;;;;;4956306;28;20198;-75
2022/01/29 08:54:47;;;;;;;4.43;3.67;;;1.80;96.30;;;;;;4955185;29;20250;-75
2022/01/29 08:57:13;;;;;;;4.23;2.70;;;1.80;96.30;;;;;;4956404;29;20191;-74
2022/01/29 08:59:38;;;;;;;7.27;3.63;;;1.80;96.30;;;;;;4956377;28;20193;-75
2022/01/29 09:02:04;;;;;;;3.37;3.00;;;1.80;96.30;;;;;;4954849;28;20211;-75
2022/01/29 09:04:30;;;;;;;4.00;3.40;;;1.80;96.30;;;;;;4955668;28;20175;-75
2022/01/29 09:06:55;;;;;;;4.30;2.40;;;1.80;96.30;;;;;;4955892;29;20202;-75
2022/01/29 09:09:25;;;;;;;3.50;2.70;;;1.90;96.30;;;;;;4955701;28;20190;-75
2022/01/29 09:11:53;;;;;;;3.40;3.10;;;1.90;96.30;;;;;;4955755;28;20693;-75
2022/01/29 09:14:20;;;;;;;4.70;2.90;;;1.90;96.30;;;;;;4955391;28;20427;-75
2022/01/29 09:16:45;;;;;;;3.10;2.80;;;1.90;96.30;;;;;;4954373;28;20415;-75
2022/01/29 09:19:11;;;;;;;3.23;2.50;;;1.90;96.30;;;;;;4956045;28;20556;-75
2022/01/29 09:21:37;;;;;;;3.20;2.50;;;2.00;96.30;;;;;;4955575;28;20222;-75
2022/01/29 09:24:03;;;;;;;2.67;2.23;;;1.90;96.30;;;;;;4955664;28;20205;-74
2022/01/29 09:26:28;;;;;;;2.90;2.70;;;1.90;96.30;;;;;;4959423;28;20262;-75
2022/01/29 09:28:54;;;;;;;3.20;2.53;;;1.90;96.30;;;;;;4955471;28;20178;-74
2022/01/29 09:31:20;;;;;;;4.80;2.80;;;1.80;96.30;;;;;;4962263;28;20241;-74
2022/01/29 09:33:45;;;;;;;3.43;2.90;;;1.90;96.30;;;;;;4968230;28;20182;-73
2022/01/29 09:36:11;;;;;;;3.70;2.93;;;1.90;96.30;;;;;;4954976;28;20419;-75
2022/01/29 09:38:36;;;;;;;3.20;2.77;;;2.00;96.30;;;;;;4954312;28;20183;-76
2022/01/29 09:41:04;;;;;;;3.27;2.97;;;2.00;96.30;;;;;;4954222;28;20207;-75
2022/01/29 09:43:32;;;;;;;5.50;3.47;;;2.10;96.30;;;;;;4958816;28;20269;-76
2022/01/29 09:45:58;;;;;;;4.73;3.60;;;2.10;96.30;;;;;;4955067;28;20415;-76
2022/01/29 09:48:27;;;;;;;3.60;3.30;;;2.10;96.30;;;;;;4955673;29;20411;-75
2022/01/29 09:50:54;;;;;;;3.00;2.70;;;2.20;96.30;;;;;;4955356;28;20462;-76
2022/01/29 09:53:20;;;;;;;4.40;3.20;;;2.20;96.30;;;;;;4955344;28;20422;-76
2022/01/29 09:55:46;;;;;;;4.00;3.23;;;2.20;96.30;;;;;;4953472;29;20422;-76
2022/01/29 09:58:12;;;;;;;3.47;2.53;;;2.30;96.30;;;;;;4957655;28;20218;-77
2022/01/29 10:00:38;;;;;;;3.97;3.30;;;2.40;96.30;;;;;;4954847;28;20458;-74
2022/01/29 10:03:10;;;;;;;4.70;3.80;;;2.40;96.30;;;;;;4956841;28;20980;-76
2022/01/29 10:05:50;;;;;;;5.53;3.90;;;2.40;96.30;;;;;;4947010;28;20437;-75
2022/01/29 10:08:16;;;;;;;3.23;2.93;;;2.40;96.30;;;;;;4957049;28;20421;-74
2022/01/29 10:10:43;;;;;;;3.80;3.00;;;2.40;96.30;;;;;;4963534;28;20446;-78
2022/01/29 10:13:32;;;;;;;5.13;3.97;;;2.50;96.30;;;;;;4974479;28;20418;-77
2022/01/29 10:16:11;;;;;;;5.50;3.60;;;2.50;96.30;;;;;;4974026;28;20500;-75
2022/01/29 10:18:38;;;;;;;4.87;3.40;;;2.50;96.30;;;;;;4970098;28;20485;-76
2022/01/29 10:21:23;;;;;;;7.17;4.47;;;2.50;96.30;;;;;;4953641;28;20430;-73
2022/01/29 10:24:02;;;;;;;6.27;4.20;;;2.60;96.30;;;;;;4960551;28;20461;-77
2022/01/29 10:26:33;;;;;;;4.03;3.13;;;2.60;96.30;;;;;;4962381;28;20409;-77
2022/01/29 10:29:00;;;;;;;4.77;4.00;;;2.60;96.30;;;;;;4965287;28;20411;-78
2022/01/29 10:31:39;;;;;;;5.23;4.60;;;2.70;96.30;;;;;;4954201;28;20435;-77
2022/01/29 10:34:18;;;;;;;6.53;4.17;;;2.70;96.30;;;;;;4954302;28;20447;-76
2022/01/29 10:36:44;;;;;;;4.83;4.27;;;2.80;96.30;;;;;;4953268;28;20488;-77
2022/01/29 10:39:10;;;;;;;6.10;4.37;;;2.70;96.30;;;;;;4953197;28;20450;-77
2022/01/29 10:41:35;;;;;;;4.30;3.80;;;2.80;96.30;;;;;;4954431;28;20438;-77
2022/01/29 10:44:12;;;;;;;4.73;4.13;;;2.80;96.30;;;;;;4954373;28;20579;-76
2022/01/29 10:46:44;;;;;;;4.73;3.90;;;2.80;96.30;;;;;;4954117;29;20159;-78
2022/01/29 10:49:17;;;;;;;6.53;4.23;;;2.80;96.30;;;;;;4954389;28;20411;-77
2022/01/29 10:51:58;;;;;;;5.43;4.17;;;2.80;96.30;;;;;;4954710;28;20485;-77
2022/01/29 10:54:25;;;;;;;7.23;4.17;;;2.80;96.30;;;;;;4954300;28;20434;-79
2022/01/29 10:57:00;;;;;;;6.73;4.60;;;2.80;96.30;;;;;;4970570;28;20413;-78
2022/01/29 10:59:27;;;;;;;6.10;3.93;;;2.80;96.30;;;;;;4958928;28;20917;-75
2022/01/29 11:02:02;;;;;;;4.87;4.10;;;2.80;96.30;;;;;;4953133;28;20453;-76
2022/01/29 11:04:30;;;;;;;6.37;4.27;;;2.80;96.30;;;;;;4954620;28;20918;-75
2022/01/29 11:07:00;;;;;;;5.80;4.50;;;2.70;96.30;;;;;;4955724;28;20398;-75
2022/01/29 11:09:28;;;;;;;6.63;4.40;;;2.70;96.30;;;;;;4956262;28;20421;-77
2022/01/29 11:11:56;;;;;;;5.50;3.40;;;2.70;96.30;;;;;;4952949;28;20461;-76
2022/01/29 11:14:24;;;;;;;3.67;3.13;;;2.70;96.30;;;;;;4969242;28;20497;-76
2022/01/29 11:16:52;;;;;;;4.00;3.03;;;2.70;96.30;;;;;;4953938;28;20943;-76
2022/01/29 11:19:17;;;;;;;5.93;3.80;;;2.80;96.30;;;;;;4954058;28;20934;-75
2022/01/29 11:41:14;;;;;;;4.10;3.27;;;3.00;96.30;;;;;;4978290;28;20452;-81
2022/01/29 11:43:39;;;;;;;3.50;2.73;;;3.10;96.30;;;;;;4975041;28;20473;-79
2022/01/29 11:46:17;;;;;;;3.10;2.80;;;3.20;96.30;;;;;;4989797;28;20716;-80
2022/01/29 11:48:58;;;;;;;5.63;2.40;;;3.40;96.30;;;;;;4995581;28;20174;-81
2022/01/29 11:51:50;;;;;;;4.97;3.90;;;3.50;96.30;;;;;;4996646;28;20428;-78
2022/01/29 11:54:22;;;;;;;2.50;2.30;;;3.60;96.30;;;;;;4996319;28;20480;-83
2022/01/29 11:56:48;;;;;;;2.20;2.00;;;3.70;96.30;;;;;;4995300;28;20413;-78
2022/01/29 11:59:19;;;;;;;2.70;2.03;;;3.60;96.30;;;;;;4993270;28;20544;-78
2022/01/29 12:01:46;;;;;;;2.70;2.30;;;3.50;96.30;;;;;;4985267;28;20429;-78
2022/01/29 12:04:12;;;;;;;1.50;1.40;;;3.40;96.30;;;;;;4975281;28;20464;-77
2022/01/29 12:07:17;;;;;;;3.33;2.20;;;3.40;96.30;;;;;;4976490;28;20484;-76
2022/01/29 12:10:08;;;;;;;1.47;1.37;;;3.40;96.30;;;;;;4985727;28;20422;-76
2022/01/29 12:12:36;;;;;;;1.63;1.53;;;3.40;96.30;;;;;;4977308;28;20456;-77
2022/01/29 12:15:21;;;;;;;2.07;1.67;;;3.40;96.30;;;;;;4975365;28;20438;-76
2022/01/29 12:17:59;;;;;;;1.47;1.23;;;3.60;96.30;;;;;;4981966;28;20515;-77
2022/01/29 12:20:26;;;;;;;1.53;1.20;;;3.70;96.30;;;;;;4976092;28;20389;-80
2022/01/29 12:23:00;;;;;;;1.70;1.50;;;3.80;96.30;;;;;;4984157;28;20526;-79
2022/01/29 12:25:27;;;;;;;1.87;1.27;;;3.70;96.30;;;;;;4981108;28;20424;-79
2022/01/29 12:27:58;;;;;;;2.10;1.70;;;3.60;96.30;;;;;;4995479;28;20455;-81
2022/01/29 12:30:25;;;;;;;1.47;1.17;;;3.60;96.30;;;;;;4996451;28;20404;-80
2022/01/29 12:33:01;;;;;;;2.27;1.70;;;3.60;96.30;;;;;;4996577;28;20932;-80
2022/01/29 12:35:51;;;;;;;1.47;1.33;;;3.60;96.30;;;;;;4984175;28;20501;-81
2022/01/29 12:38:26;;;;;;;1.47;1.20;;;3.70;96.30;;;;;;4979805;28;20499;-82
2022/01/29 12:40:59;;;;;;;1.30;1.20;;;3.70;96.30;;;;;;4981141;28;21018;-83
2022/01/29 12:43:29;;;;;;;1.53;1.13;;;3.60;96.30;;;;;;4993784;28;20464;-82
2022/01/29 12:46:05;;;;;;;3.93;1.10;;;3.50;96.30;;;;;;4996041;28;20447;-81
2022/01/29 12:48:31;;;;;;;1.30;1.10;;;3.50;96.30;;;;;;4994725;28;20412;-80
2022/01/29 12:51:07;;;;;;;1.10;1.00;;;3.50;96.30;;;;;;4996042;28;20429;-81
2022/01/29 12:53:33;;;;;;;1.63;1.07;;;3.50;96.30;;;;;;4993834;28;20448;-82
2022/01/29 12:56:01;;;;;;;1.50;1.20;;;3.40;96.30;;;;;;4994902;28;20432;-82
2022/01/29 12:58:41;;;;;;;1.50;1.20;;;3.40;96.30;;;;;;4979550;28;20899;-81
2022/01/29 13:01:12;;;;;;;1.93;1.37;;;3.40;96.30;;;;;;4975868;28;20469;-81
2022/01/29 13:03:39;;;;;;;1.30;1.17;;;3.40;96.30;;;;;;4975138;28;20457;-81
2022/01/29 13:06:15;;;;;;;2.07;1.20;;;3.30;96.30;;;;;;4984478;28;20521;-82
2022/01/29 13:08:41;;;;;;;3.10;1.00;;;3.30;96.30;;;;;;4994560;28;20407;-81
2022/01/29 13:11:24;;;;;;;1.10;1.00;;;3.20;96.30;;;;;;4996235;28;20433;-82
2022/01/29 13:13:49;;;;;;;1.57;1.17;;;3.20;96.30;;;;;;4995080;28;20182;-80
2022/01/29 13:16:15;;;;;;;1.50;1.20;;;3.10;96.30;;;;;;4994513;28;20951;-81
2022/01/29 13:18:41;;;;;;;1.20;1.10;;;3.20;96.30;;;;;;4996303;28;20246;-81
2022/01/29 13:21:07;;;;;;;1.27;1.17;;;3.20;96.30;;;;;;4994790;28;20288;-80
2022/01/29 13:23:37;;;;;;;2.90;1.10;;;3.10;96.30;;;;;;4994349;28;20796;-80
2022/01/29 13:26:17;;;;;;;2.27;1.77;;;3.10;96.30;;;;;;4994085;28;20173;-80
2022/01/29 13:28:47;;;;;;;1.57;1.47;;;3.20;96.30;;;;;;4994521;28;20464;-81
2022/01/29 13:31:14;;;;;;;1.40;1.17;;;3.20;96.30;;;;;;4995851;28;20432;-80
2022/01/29 13:33:40;;;;;;;1.53;1.43;;;3.20;96.30;;;;;;4995633;28;20409;-80
2022/01/29 13:36:06;;;;;;;1.57;1.33;;;3.10;96.30;;;;;;4982544;28;20428;-79
2022/01/29 13:38:38;;;;;;;1.80;1.60;;;3.10;96.30;;;;;;4974956;28;20887;-80
2022/01/29 13:41:04;;;;;;;1.60;1.30;;;3.00;96.30;;;;;;4974797;28;20202;-80
2022/01/29 13:43:35;;;;;;;2.40;1.80;;;3.00;96.30;;;;;;4974503;28;20469;-80
2022/01/29 13:46:04;;;;;;;1.57;1.33;;;3.00;96.30;;;;;;4974572;28;20181;-79
2022/01/29 13:48:55;;;;;;;1.60;1.50;;;3.10;96.30;;;;;;4975964;28;20448;-80
2022/01/29 13:51:34;;;;;;;2.00;1.30;;;3.00;96.30;;;;;;4974677;28;20441;-80
2022/01/29 13:54:02;;;;;;;1.70;1.60;;;3.00;96.30;;;;;;4974698;28;20953;-79
2022/01/29 13:56:29;;;;;;;1.93;1.47;;;3.00;96.30;;;;;;4973647;28;20414;-80
2022/01/29 13:59:03;;;;;;;2.00;1.90;;;3.00;96.30;;;;;;4974797;28;20449;-80
2022/01/29 14:01:43;;;;;;;2.40;2.00;;;3.00;96.30;;;;;;4976124;28;20504;-80
2022/01/29 14:04:11;;;;;;;2.03;1.40;;;2.90;96.30;;;;;;4974474;28;20469;-80
2022/01/29 14:06:46;;;;;;;2.27;1.90;;;2.90;96.30;;;;;;4974434;28;20553;-79
2022/01/29 14:09:46;;;;;;;1.73;1.60;;;2.90;96.30;;;;;;4976254;28;20413;-80
2022/01/29 14:12:27;;;;;;;2.80;1.90;;;2.90;96.30;;;;;;4974760;28;20448;-79
2022/01/29 14:14:57;;;;;;;1.80;1.70;;;2.90;96.30;;;;;;4974488;28;20420;-80
2022/01/29 14:17:27;;;;;;;2.40;1.73;;;2.80;96.30;;;;;;4975429;28;20413;-80
2022/01/29 14:19:54;;;;;;;2.97;1.90;;;2.80;96.30;;;;;;4974565;28;20406;-79
2022/01/29 14:22:25;;;;;;;3.57;2.00;;;2.80;96.30;;;;;;4974141;28;21104;-80
2022/01/29 14:24:52;;;;;;;1.50;1.40;;;2.80;96.30;;;;;;4974075;28;20412;-80
2022/01/29 14:27:18;;;;;;;1.87;1.53;;;2.80;96.30;;;;;;4974340;28;20414;-80
2022/01/29 14:29:45;;;;;;;2.10;1.90;;;2.80;96.30;;;;;;4974028;28;20414;-80
2022/01/29 14:32:12;;;;;;;2.53;2.17;;;2.80;96.30;;;;;;4975367;28;20449;-79
2022/01/29 14:34:38;;;;;;;2.07;1.87;;;2.80;96.30;;;;;;4973998;28;20468;-80
2022/01/29 14:37:04;;;;;;;2.17;1.97;;;2.80;96.30;;;;;;4994562;28;20417;-80
2022/01/29 14:39:30;;;;;;;2.10;1.90;;;2.80;96.30;;;;;;4993477;28;20499;-80
2022/01/29 14:41:57;;;;;;;2.20;2.00;;;2.90;96.30;;;;;;4993172;28;20220;-80
2022/01/29 14:44:24;;;;;;;3.23;1.97;;;2.80;96.30;;;;;;4994651;28;20417;-80
2022/01/29 14:46:50;;;;;;;2.10;1.80;;;2.90;96.30;;;;;;4993878;28;20427;-79
2022/01/29 14:49:16;;;;;;;2.17;1.80;;;2.90;96.30;;;;;;4995062;28;20575;-80
2022/01/29 14:51:44;;;;;;;3.03;2.00;;;2.90;96.30;;;;;;4993224;28;20216;-80
2022/01/29 14:54:10;;;;;;;2.37;1.80;;;2.90;96.30;;;;;;4993171;28;20413;-79
2022/01/29 14:56:36;;;;;;;1.80;1.47;;;3.00;96.30;;;;;;4994496;28;20415;-79
2022/01/29 14:59:03;;;;;;;1.87;1.40;;;2.90;96.30;;;;;;4994764;28;20177;-79
2022/01/29 15:01:28;;;;;;;1.60;1.50;;;3.00;96.30;;;;;;4994937;28;20801;-80
2022/01/29 15:03:55;;;;;;;2.40;1.90;;;3.00;96.30;;;;;;4993296;28;20452;-80
2022/01/29 15:06:22;;;;;;;4.33;2.37;;;3.00;96.30;;;;;;4994284;28;20174;-79
2022/01/29 15:08:49;;;;;;;2.33;2.03;;;3.00;96.30;;;;;;4992960;28;20417;-79
2022/01/29 15:11:15;;;;;;;2.70;1.60;;;3.00;96.30;;;;;;4994875;28;20443;-80
2022/01/29 15:13:41;;;;;;;1.73;1.40;;;3.00;96.30;;;;;;4993259;28;20506;-79
2022/01/29 15:16:06;;;;;;;1.93;1.73;;;3.10;96.30;;;;;;4994537;28;20417;-79
2022/01/29 15:18:32;;;;;;;2.17;1.97;;;3.00;96.30;;;;;;4993338;28;20177;-79
2022/01/29 15:20:59;;;;;;;2.07;1.63;;;3.10;96.30;;;;;;4993093;28;20740;-80
2022/01/29 15:23:24;;;;;;;1.93;1.80;;;3.10;96.30;;;;;;4993182;28;20201;-79
2022/01/29 15:25:51;;;;;;;1.97;1.87;;;3.10;96.30;;;;;;4994049;28;20463;-80
2022/01/29 15:28:18;;;;;;;3.30;2.10;;;3.10;96.30;;;;;;4992992;28;20220;-80
2022/01/29 15:30:44;;;;;;;2.20;1.83;;;3.20;96.30;;;;;;4993294;28;20464;-80
2022/01/29 15:33:11;;;;;;;2.23;2.03;;;3.10;96.30;;;;;;4993074;28;20452;-80
2022/01/29 15:35:37;;;;;;;4.50;2.37;;;3.10;96.30;;;;;;4986939;28;20421;-79
2022/01/29 15:38:03;;;;;;;2.20;1.87;;;3.10;96.30;;;;;;4974070;28;20516;-80
2022/01/29 15:40:29;;;;;;;2.47;2.00;;;3.20;96.30;;;;;;4975166;28;20496;-80
2022/01/29 15:42:55;;;;;;;5.60;4.17;;;3.20;96.30;;;;;;4973547;28;20484;-79
2022/01/29 15:45:20;;;;;;;5.03;3.90;;;3.10;96.30;;;;;;4973728;28;20622;-79
2022/01/29 15:47:46;;;;;;;6.33;5.30;;;3.20;96.30;;;;;;4973763;28;20774;-80
2022/01/29 15:50:13;;;;;;;5.70;4.33;;;3.20;96.30;;;;;;4975535;28;20631;-80
2022/01/29 15:52:38;;;;;;;4.23;3.63;;;3.20;96.30;;;;;;4973683;28;20432;-80
2022/01/29 15:55:04;;;;;;;2.93;2.57;;;3.20;96.30;;;;;;4973786;28;20441;-79
2022/01/29 15:57:30;;;;;;;2.30;2.00;;;3.20;96.30;;;;;;4973701;28;20232;-79
2022/01/29 15:59:56;;;;;;;2.37;1.40;;;3.20;96.30;;;;;;4974694;28;20424;-80
2022/01/29 16:02:24;;;;;;;6.53;2.43;;;3.30;96.30;;;;;;4975141;28;20556;-80
2022/01/29 16:04:50;;;;;;;1.87;1.60;;;3.30;96.30;;;;;;4974019;28;20182;-80
2022/01/29 16:07:16;;;;;;;2.20;1.73;;;3.30;96.30;;;;;;4974080;28;20424;-79
2022/01/29 16:09:41;;;;;;;1.77;1.40;;;3.30;96.30;;;;;;4974054;28;20178;-79
2022/01/29 16:12:08;;;;;;;2.53;1.93;;;3.30;96.30;;;;;;4973968;28;20198;-80
2022/01/29 16:14:33;;;;;;;1.40;1.30;;;3.30;96.30;;;;;;4974754;28;20177;-79
2022/01/29 16:17:01;;;;;;;1.93;1.50;;;3.40;96.30;;;;;;4975728;28;20417;-80
2022/01/29 16:19:26;;;;;;;1.57;1.47;;;3.50;96.30;;;;;;4978244;28;20170;-79
2022/01/29 16:21:52;;;;;;;3.97;1.60;;;3.50;96.30;;;;;;4980290;28;20433;-80
2022/01/29 16:24:18;;;;;;;2.10;1.37;;;3.50;96.30;;;;;;4979496;28;20242;-80
2022/01/29 16:26:44;;;;;;;1.43;1.30;;;3.50;96.30;;;;;;4977501;28;20170;-80
2022/01/29 16:29:09;;;;;;;2.17;1.40;;;3.50;96.30;;;;;;4975466;28;20465;-80
2022/01/29 16:31:35;;;;;;;3.07;1.23;;;3.50;96.30;;;;;;4976744;28;20201;-80
2022/01/29 16:34:00;;;;;;;1.53;1.20;;;3.60;96.30;;;;;;4975403;28;20217;-80
2022/01/29 16:36:26;;;;;;;1.53;1.43;;;3.50;96.30;;;;;;4989050;28;20181;-79
2022/01/29 16:38:51;;;;;;;1.87;1.00;;;3.60;96.30;;;;;;4994705;28;20178;-80
2022/01/29 16:41:17;;;;;;;2.00;1.00;;;3.70;96.30;;;;;;4994636;28;20204;-80
2022/01/29 16:43:44;;;;;;;1.33;0.90;;;3.70;96.30;;;;;;4996292;28;20216;-79
2022/01/29 16:46:10;;;;;;;1.73;1.30;;;3.60;96.30;;;;;;4994314;28;20625;-80
2022/01/29 16:48:37;;;;;;;1.30;0.90;;;3.60;96.30;;;;;;4995784;28;20416;-79
2022/01/29 16:51:04;;;;;;;1.50;1.20;;;3.60;96.30;;;;;;4995613;28;20436;-79
2022/01/29 16:53:29;;;;;;;2.57;1.20;;;3.70;96.30;;;;;;4994444;28;20458;-79
2022/01/29 16:55:55;;;;;;;1.20;1.10;;;3.70;96.30;;;;;;4995392;28;20424;-79
2022/01/29 16:58:21;;;;;;;1.77;1.50;;;3.70;96.30;;;;;;4995789;28;20587;-79
2022/01/29 17:00:47;;;;;;;1.60;1.30;;;3.80;96.30;;;;;;4995876;28;20204;-79
2022/01/29 17:03:13;;;;;;;1.40;1.20;;;3.80;96.30;;;;;;4997328;28;20499;-79
2022/01/29 17:05:39;;;;;;;1.37;1.07;;;3.80;96.30;;;;;;4995803;28;20495;-79
2022/01/29 17:08:04;;;;;;;2.07;1.50;;;3.80;96.30;;;;;;4997867;28;20436;-79
2022/01/29 17:10:30;;;;;;;1.53;1.40;;;3.80;96.30;;;;;;4997662;28;20405;-79
2022/01/29 17:12:56;;;;;;;1.13;0.80;;;3.80;96.30;;;;;;4998895;28;20174;-80
2022/01/29 17:15:22;;;;;;;1.20;1.10;;;3.80;96.30;;;;;;4994446;28;20217;-79
2022/01/29 17:17:48;;;;;;;1.40;1.00;;;3.80;96.30;;;;;;4994674;28;20206;-80
2022/01/29 17:20:14;;;;;;;1.43;1.13;;;3.80;96.30;;;;;;4994209;28;20846;-80
2022/01/29 18:14:55;;;;;;;1.33;1.20;;;3.90;96.30;;;;;;6047603;23;20413;-79
2022/01/29 18:17:20;;;;;;;1.53;1.00;;;4.00;96.30;;;;;;5010273;28;20500;-79
2022/01/29 18:19:46;;;;;;;1.50;1.40;;;4.00;96.30;;;;;;4995190;28;20289;-79
2022/01/29 18:22:12;;;;;;;2.17;1.10;;;4.00;96.30;;;;;;4993628;28;20204;-79